»·PEaware :: QXE2016 KSEA-CYLW

QXE2016 :: KSEA-CYLW

FLIGHT INFORMATION

Flight Status: Arrived
Operator:
Horizon Air
More flights by this operator :: More flights under this callsign
Pilot: Mark V. (9547)
Aircraft: DEHAVILLAND DASH 8 400
(DH8D)
More flights by this aircraft type
Origin: KSEA Seattle-Tacoma Intl
United States
Destination: CYLW Kelowna
Canada
More flights between these airports :: More routes between these airports
Route: SEA5 ALPSE YDC PIGLU2
File this flight plan on PilotEdge
Remarks:
Altitude:
(Current/Filed)
21,000ft
Speed:
(Current/Filed)
300kts
Departed: 22-Aug-17 04:19 PM
Arrived: 22-Aug-17 05:19 PM
Distance/Time
Traveled:
190nm/1:00
Distance/Time
To Go:
Arrived

Flight Plot

Page will automatically refresh every two minutes.

Flight plan parsing failed; only flown route is shown


Map Options




Map Legend


Flown Route
Filed Route
Departure Airport
Arrival Airport
Navaid (VOR, NDB)
Fix

Horizontal Profiles

Position Reports

Time Latitude Longitude Heading Altitude Ground
Speed
22-Aug-17 15:52 47.437910 -122.303128 4 440ft 0kts
22-Aug-17 15:53 47.437910 -122.303128 4 440ft 0kts
22-Aug-17 15:54 47.437910 -122.303128 4 440ft 0kts
22-Aug-17 15:55 47.437910 -122.303128 4 440ft 0kts
22-Aug-17 15:56 47.437910 -122.303128 4 440ft 0kts
22-Aug-17 15:57 47.437910 -122.303128 4 440ft 0kts
22-Aug-17 15:58 47.437910 -122.303128 4 440ft 0kts
22-Aug-17 15:59 47.437910 -122.303128 4 440ft 0kts
22-Aug-17 16:00 47.437910 -122.303128 4 440ft 0kts
22-Aug-17 16:01 47.437910 -122.303128 4 440ft 0kts
22-Aug-17 16:02 47.437910 -122.303128 4 440ft 0kts
22-Aug-17 16:03 47.437910 -122.303128 4 440ft 0kts
22-Aug-17 16:04 47.437910 -122.303128 4 440ft 0kts
22-Aug-17 16:05 47.437910 -122.303128 4 440ft 0kts
22-Aug-17 16:06 47.437910 -122.303128 4 440ft 0kts
22-Aug-17 16:07 47.437910 -122.303128 4 440ft 0kts
22-Aug-17 16:08 47.437910 -122.303128 4 440ft 0kts
22-Aug-17 16:09 47.437910 -122.303128 4 440ft 0kts
22-Aug-17 16:10 47.437910 -122.303128 4 440ft 0kts
22-Aug-17 16:11 47.437910 -122.303128 4 440ft 0kts
22-Aug-17 16:12 47.437891 -122.303131 4 440ft 2kts
22-Aug-17 16:13 47.437320 -122.302885 250 440ft 0kts
22-Aug-17 16:14 47.437320 -122.302885 250 440ft 0kts
22-Aug-17 16:15 47.437218 -122.303413 263 440ft 10kts
22-Aug-17 16:16 47.437284 -122.306073 299 440ft 9kts
22-Aug-17 16:17 47.441500 -122.306368 0 440ft 18kts
22-Aug-17 16:18 47.446900 -122.306316 0 440ft 21kts
22-Aug-17 16:19 47.453011 -122.306257 0 440ft 25kts
22-Aug-17 16:20 47.459879 -122.306187 0 440ft 24kts
22-Aug-17 16:21 47.463648 -122.306376 311 440ft 0kts
22-Aug-17 16:22 47.463748 -122.306586 295 440ft 7kts
22-Aug-17 16:23 47.454486 -122.307859 180 441ft 127kts
22-Aug-17 16:24 47.414857 -122.302287 180 2719ft 152kts
22-Aug-17 16:25 47.356905 -122.306057 180 2964ft 238kts
22-Aug-17 16:26 47.293971 -122.299687 162 5556ft 209kts
22-Aug-17 16:27 47.270571 -122.220582 96 6909ft 231kts
22-Aug-17 16:28 47.286896 -122.134352 27 6971ft 241kts
22-Aug-17 16:29 47.349387 -122.105147 16 7535ft 239kts
22-Aug-17 16:30 47.412473 -122.076299 16 9483ft 240kts
22-Aug-17 16:31 47.480205 -122.063391 357 10918ft 265kts
22-Aug-17 16:32 47.554285 -122.065366 356 12132ft 274kts
22-Aug-17 16:33 47.630553 -122.067437 356 13347ft 279kts
22-Aug-17 16:34 47.707867 -122.069617 356 14334ft 282kts
22-Aug-17 16:35 47.784376 -122.071732 356 15828ft 266kts
22-Aug-17 16:36 47.858090 -122.073732 355 17272ft 267kts
22-Aug-17 16:37 47.932560 -122.075904 355 18326ft 271kts
22-Aug-17 16:38 48.008707 -122.078214 355 19183ft 277kts
22-Aug-17 16:39 48.085671 -122.080599 355 20074ft 281kts
22-Aug-17 16:40 48.163187 -122.076192 19 20685ft 291kts
22-Aug-17 16:41 48.227452 -122.000836 41 21001ft 309kts
22-Aug-17 16:42 48.291153 -121.913168 41 21065ft 326kts
22-Aug-17 16:43 48.358212 -121.821025 41 21059ft 338kts
22-Aug-17 16:44 48.426656 -121.726881 41 21059ft 340kts
22-Aug-17 16:45 48.494618 -121.632977 42 21054ft 342kts
22-Aug-17 16:46 48.563349 -121.537644 42 21047ft 343kts
22-Aug-17 16:47 48.632203 -121.441787 42 21037ft 344kts
22-Aug-17 16:48 48.701262 -121.345267 42 21028ft 344kts
22-Aug-17 16:49 48.769947 -121.248843 42 20996ft 344kts
22-Aug-17 16:50 48.838493 -121.152341 42 21000ft 343kts
22-Aug-17 16:51 48.905943 -121.056981 42 20996ft 343kts
22-Aug-17 16:52 48.973465 -120.961105 42 20993ft 343kts
22-Aug-17 16:53 49.040862 -120.865017 42 20992ft 344kts
22-Aug-17 16:54 49.107427 -120.769850 42 20991ft 343kts
22-Aug-17 16:55 49.164529 -120.687857 42 20991ft 343kts
22-Aug-17 16:56 49.232054 -120.590502 42 20991ft 343kts
22-Aug-17 16:57 49.310945 -120.476378 42 20988ft 341kts
22-Aug-17 16:58 49.357709 -120.408476 42 20989ft 339kts
22-Aug-17 16:59 49.390012 -120.362590 39 20987ft 339kts
22-Aug-17 17:00 49.463331 -120.278088 35 20986ft 338kts
22-Aug-17 17:01 49.550247 -120.176762 36 19799ft 355kts
22-Aug-17 17:02 49.627902 -120.085283 36 17945ft 358kts
22-Aug-17 17:03 49.692200 -120.009437 37 16449ft 354kts
22-Aug-17 17:04 49.766902 -119.920895 37 14670ft 332kts
22-Aug-17 17:05 49.832291 -119.843270 37 13100ft 273kts
22-Aug-17 17:06 49.898298 -119.801053 15 11779ft 272kts
22-Aug-17 17:07 49.970726 -119.768492 16 10334ft 279kts
22-Aug-17 17:08 50.042822 -119.734572 17 8911ft 274kts
22-Aug-17 17:09 50.109895 -119.690268 30 8319ft 245kts
22-Aug-17 17:10 50.163043 -119.644075 29 8310ft 218kts
22-Aug-17 17:11 50.216831 -119.594662 49 8272ft 235kts
22-Aug-17 17:12 50.211757 -119.504587 97 6353ft 226kts
22-Aug-17 17:13 50.211690 -119.503583 95 6332ft 226kts
22-Aug-17 17:14 50.212179 -119.452176 115 5590ft 201kts
22-Aug-17 17:15 50.173216 -119.419153 163 5468ft 146kts
22-Aug-17 17:16 50.133546 -119.405433 170 4922ft 153kts
22-Aug-17 17:17 50.088729 -119.396205 174 3927ft 154kts
22-Aug-17 17:18 50.050536 -119.390672 174 3143ft 128kts
22-Aug-17 17:19 50.033024 -119.388417 174 2742ft 113kts
22-Aug-17 17:20 50.014140 -119.383820 172 2970ft 123kts
22-Aug-17 17:21 49.978484 -119.380942 172 1714ft 130kts
22-Aug-17 17:22 49.950178 -119.377001 175 1382ft 48kts
22-Aug-17 17:23 49.949523 -119.378209 354 1382ft 13kts
22-Aug-17 17:24 49.951033 -119.379486 201 1382ft 3kts
22-Aug-17 17:25 49.951041 -119.380483 280 1382ft 0kts

Navigation Log

Ident Type
Flight plan parsing failed, navigation log unavailable